createdAt,value
2022-09-23T00:01:52.524Z,92811.84
2022-09-23T00:04:22.328Z,92810.88
2022-09-23T00:06:51.654Z,92817.13
2022-09-23T00:09:21.074Z,92808.59
2022-09-23T00:11:50.373Z,92801.75
2022-09-23T00:14:19.629Z,92810.44
2022-09-23T00:16:50.625Z,92802.78
2022-09-23T00:19:20.014Z,92799.09
2022-09-23T00:21:49.885Z,92794.56
2022-09-23T00:24:19.929Z,92795.41
2022-09-23T00:26:49.350Z,92795.50
2022-09-23T00:29:19.096Z,92793.56
2022-09-23T00:31:50.068Z,92795.06
2022-09-23T00:34:19.552Z,92789.50
2022-09-23T00:36:48.937Z,92793.94
2022-09-23T00:39:18.359Z,92784.88
2022-09-23T00:41:47.771Z,92784.22
2022-09-23T00:44:47.921Z,92788.00
2022-09-23T00:47:23.796Z,92787.81
2022-09-23T00:52:04.081Z,92782.03
2022-09-23T00:54:34.238Z,92777.38
2022-09-23T00:57:05.961Z,92772.00
2022-09-23T00:59:35.767Z,92770.69
2022-09-23T01:02:07.153Z,92772.19
2022-09-23T01:04:37.145Z,92775.81
2022-09-23T01:07:07.996Z,92773.22
2022-09-23T01:09:38.269Z,92769.63
2022-09-23T01:12:25.874Z,92771.38
2022-09-23T01:15:05.519Z,92764.59
2022-09-23T01:17:42.218Z,92772.72
2022-09-23T01:20:57.089Z,92775.00
2022-09-23T01:24:28.910Z,92775.16
2022-09-23T01:27:14.096Z,92770.81
2022-09-23T01:30:18.979Z,92768.38
2022-09-23T01:33:06.140Z,92775.31
2022-09-23T01:36:07.935Z,92772.72
2022-09-23T01:38:46.146Z,92782.34
2022-09-23T01:41:31.671Z,92781.75
2022-09-23T01:44:08.352Z,92781.84
2022-09-23T01:46:43.798Z,92771.81
2022-09-23T01:49:23.825Z,92778.00
2022-09-23T01:52:00.372Z,92779.34
2022-09-23T01:54:38.955Z,92775.00
2022-09-23T01:57:16.376Z,92769.97
2022-09-23T01:59:50.707Z,92766.31
2022-09-23T02:02:28.494Z,92767.41
2022-09-23T02:05:05.972Z,92769.41
2022-09-23T02:07:42.831Z,92776.22
2022-09-23T02:10:17.282Z,92774.00
2022-09-23T02:12:50.636Z,92769.91
2022-09-23T02:15:24.381Z,92771.75
2022-09-23T02:18:00.235Z,92768.97
2022-09-23T02:20:35.229Z,92769.16
2022-09-23T02:23:09.844Z,92779.16
2022-09-23T02:25:47.588Z,92772.41
2022-09-23T02:28:21.630Z,92775.00
2022-09-23T02:30:56.832Z,92776.97
2022-09-23T02:33:32.046Z,92777.13
2022-09-23T02:36:10.626Z,92781.72
2022-09-23T02:38:46.304Z,92774.47
2022-09-23T02:41:22.195Z,92774.81
2022-09-23T02:43:59.899Z,92773.78
2022-09-23T02:46:31.427Z,92780.66
2022-09-23T02:49:06.133Z,92780.03
2022-09-23T02:51:38.495Z,92776.72
2022-09-23T02:54:10.733Z,92778.38
2022-09-23T02:56:40.334Z,92778.78
2022-09-23T02:59:11.545Z,92783.84
2022-09-23T03:01:56.653Z,92782.66
2022-09-23T03:04:38.584Z,92774.97
2022-09-23T03:07:19.909Z,92777.56
2022-09-23T03:10:01.087Z,92778.31
2022-09-23T03:12:37.766Z,92773.84
2022-09-23T03:15:21.805Z,92774.66
2022-09-23T03:18:09.351Z,92777.66
2022-09-23T03:20:45.931Z,92773.69
2022-09-23T03:23:20.257Z,92776.53
2022-09-23T03:25:54.267Z,92777.19
2022-09-23T03:28:25.724Z,92783.19
2022-09-23T03:30:56.952Z,92781.91
2022-09-23T03:33:29.402Z,92790.81
2022-09-23T03:36:22.923Z,92779.72
2022-09-23T03:38:58.510Z,92781.31
2022-09-23T03:41:39.224Z,92787.25
2022-09-23T03:44:10.820Z,92791.56
2022-09-23T03:46:41.106Z,92795.00
2022-09-23T03:49:17.347Z,92792.81
2022-09-23T03:52:57.868Z,92794.94
2022-09-23T03:55:27.276Z,92796.84
2022-09-23T03:57:57.047Z,92793.88
2022-09-23T04:00:26.850Z,92798.03
2022-09-23T04:02:57.001Z,92804.50
2022-09-23T04:05:26.596Z,92813.75
2022-09-23T04:07:57.483Z,92813.00
2022-09-23T04:10:26.955Z,92807.63
2022-09-23T04:12:57.424Z,92808.78
2022-09-23T04:15:26.894Z,92805.72
2022-09-23T04:17:56.185Z,92806.31
2022-09-23T04:20:29.988Z,92812.31
2022-09-23T04:23:00.829Z,92813.09
2022-09-23T04:25:30.281Z,92816.75
2022-09-23T04:27:59.646Z,92818.78
2022-09-23T04:30:29.005Z,92817.84
2022-09-23T04:32:58.503Z,92817.03
2022-09-23T04:35:27.875Z,92812.88
2022-09-23T04:37:57.207Z,92818.31
2022-09-23T04:40:27.994Z,92818.03
2022-09-23T04:42:57.488Z,92818.31
2022-09-23T04:45:27.069Z,92826.38
2022-09-23T04:47:58.645Z,92819.81
2022-09-23T04:50:28.941Z,92820.16
2022-09-23T04:52:58.644Z,92809.81
2022-09-23T04:55:29.843Z,92819.84
2022-09-23T04:57:59.495Z,92821.81
2022-09-23T05:00:28.992Z,92824.63
2022-09-23T05:02:58.527Z,92815.31
2022-09-23T05:05:29.673Z,92821.06
2022-09-23T05:07:59.367Z,92819.78
2022-09-23T05:10:30.352Z,92820.97
2022-09-23T05:13:00.494Z,92824.84
2022-09-23T05:15:30.050Z,92823.56
2022-09-23T05:18:00.460Z,92826.56
2022-09-23T05:20:29.895Z,92820.03
2022-09-23T05:22:59.807Z,92811.47
2022-09-23T05:25:31.220Z,92820.69
2022-09-23T05:28:02.869Z,92821.38
2022-09-23T05:30:32.808Z,92812.25
2022-09-23T05:33:02.982Z,92827.53
2022-09-23T05:35:32.436Z,92828.84
2022-09-23T05:38:01.763Z,92825.88
2022-09-23T05:40:32.774Z,92825.03
2022-09-23T05:43:02.099Z,92825.97
2022-09-23T05:45:32.986Z,92823.34
2022-09-23T05:48:02.620Z,92824.88
2022-09-23T05:50:32.000Z,92819.97
2022-09-23T05:53:01.369Z,92820.34
2022-09-23T05:55:32.521Z,92818.09
2022-09-23T05:58:01.901Z,92818.44
2022-09-23T06:00:31.304Z,92816.91
2022-09-23T06:03:00.658Z,92815.53
2022-09-23T06:05:36.631Z,92815.63
2022-09-23T06:08:05.969Z,92811.41
2022-09-23T06:10:40.594Z,92820.19
2022-09-23T06:13:10.407Z,92822.13
2022-09-23T06:15:40.971Z,92817.25
2022-09-23T06:18:10.989Z,92815.91
2022-09-23T06:20:41.053Z,92810.88
2022-09-23T06:23:13.176Z,92817.31
2022-09-23T06:25:44.063Z,92819.38
2022-09-23T06:28:13.418Z,92810.81
2022-09-23T06:30:42.904Z,92816.41
2022-09-23T06:33:12.208Z,92817.97
2022-09-23T06:35:45.688Z,92813.09
2022-09-23T06:38:19.562Z,92804.94
2022-09-23T06:40:53.597Z,92810.41
2022-09-23T06:43:23.955Z,92812.53
2022-09-23T06:45:55.491Z,92812.06
2022-09-23T06:48:25.449Z,92814.41
2022-09-23T06:52:58.620Z,92816.94
2022-09-23T06:55:29.492Z,92816.19
2022-09-23T06:58:00.974Z,92813.53
2022-09-23T07:00:30.433Z,92813.63
2022-09-23T07:02:59.895Z,92816.41
2022-09-23T07:05:29.497Z,92818.94
2022-09-23T07:08:00.434Z,92817.09
2022-09-23T07:10:31.314Z,92820.34
2022-09-23T07:13:04.309Z,92825.00
2022-09-23T07:15:34.173Z,92830.22
2022-09-23T07:18:03.432Z,92837.78
2022-09-23T07:20:32.850Z,92838.44
2022-09-23T07:23:03.726Z,92836.25
2022-09-23T07:25:34.400Z,92831.72
2022-09-23T07:28:04.529Z,92835.91
2022-09-23T07:30:34.570Z,92838.94
2022-09-23T07:33:14.237Z,92831.19
2022-09-23T07:35:50.595Z,92835.81
2022-09-23T07:38:24.872Z,92830.91
2022-09-23T07:40:54.380Z,92828.38
2022-09-23T07:43:23.831Z,92837.19
2022-09-23T07:45:53.199Z,92837.25
2022-09-23T07:48:22.519Z,92835.72
2022-09-23T07:50:51.970Z,92838.47
2022-09-23T07:53:22.779Z,92838.56
2022-09-23T07:55:57.078Z,92833.88
2022-09-23T07:58:27.276Z,92843.19
2022-09-23T08:00:56.596Z,92835.19
2022-09-23T08:03:25.857Z,92835.50
2022-09-23T08:05:55.225Z,92831.75
2022-09-23T08:08:26.126Z,92830.03
2022-09-23T08:11:03.923Z,92833.69
2022-09-23T08:13:34.332Z,92838.91
2022-09-23T08:16:04.622Z,92828.19
2022-09-23T08:18:34.131Z,92835.41
2022-09-23T08:21:03.955Z,92832.47
2022-09-23T08:23:34.960Z,92838.94
2022-09-23T08:26:15.610Z,92836.09
2022-09-23T08:28:48.527Z,92825.78
2022-09-23T08:31:18.166Z,92825.97
2022-09-23T08:33:47.724Z,92825.97
2022-09-23T08:36:17.115Z,92823.75
2022-09-23T08:38:47.922Z,92824.16
2022-09-23T08:41:26.628Z,92813.81
2022-09-23T08:44:01.079Z,92823.94
2022-09-23T08:46:37.950Z,92817.66
2022-09-23T08:49:10.440Z,92816.66
2022-09-23T08:51:46.487Z,92817.81
2022-09-23T08:54:20.243Z,92819.22
2022-09-23T08:56:52.917Z,92820.00
2022-09-23T08:59:30.108Z,92817.19
2022-09-23T09:02:03.467Z,92807.47
2022-09-23T09:04:44.724Z,92811.09
2022-09-23T09:10:20.459Z,92806.53
2022-09-23T09:12:52.466Z,92809.06
2022-09-23T09:15:25.438Z,92795.94
2022-09-23T09:18:08.824Z,92806.31
2022-09-23T09:20:43.802Z,92806.81
2022-09-23T09:23:24.607Z,92807.06
2022-09-23T09:25:57.901Z,92801.66
2022-09-23T09:28:32.413Z,92808.91
2022-09-23T09:31:11.428Z,92812.53
2022-09-23T09:33:58.475Z,92811.50
2022-09-23T09:36:39.925Z,92811.25
2022-09-23T09:39:15.127Z,92819.59
2022-09-23T09:41:53.927Z,92824.28
2022-09-23T09:44:30.203Z,92813.53
2022-09-23T09:47:18.346Z,92816.94
2022-09-23T09:53:25.976Z,92811.19
2022-09-23T09:56:07.541Z,92810.41
2022-09-23T09:58:44.378Z,92814.81
2022-09-23T10:01:26.229Z,92815.16
2022-09-23T10:04:03.237Z,92823.94
2022-09-23T10:06:36.029Z,92808.25
2022-09-23T10:09:19.668Z,92825.72
2022-09-23T10:12:16.187Z,92816.78
2022-09-23T10:14:46.174Z,92813.47
2022-09-23T10:17:21.698Z,92827.22
2022-09-23T10:20:00.493Z,92825.59
2022-09-23T10:22:35.070Z,92821.94
2022-09-23T10:25:16.685Z,92819.75
2022-09-23T10:27:47.108Z,92810.78
2022-09-23T10:30:24.591Z,92817.50
2022-09-23T10:32:56.802Z,92815.13
2022-09-23T10:35:28.417Z,92814.25
2022-09-23T10:37:59.505Z,92808.78
2022-09-23T10:40:52.367Z,92801.84
2022-09-23T10:43:47.640Z,92804.22
2022-09-23T10:46:42.588Z,92793.19
2022-09-23T10:49:36.796Z,92792.56
2022-09-23T10:52:35.402Z,92794.97
2022-09-23T10:55:17.397Z,92800.13
2022-09-23T10:58:20.704Z,92807.09
2022-09-23T11:01:06.199Z,92803.94
2022-09-23T11:04:14.414Z,92798.78
2022-09-23T11:07:07.509Z,92799.19
2022-09-23T11:09:55.947Z,92791.91
2022-09-23T11:12:37.414Z,92793.41
2022-09-23T11:15:27.171Z,92784.00
2022-09-23T11:18:31.733Z,92791.28
2022-09-23T11:21:28.398Z,92794.81
2022-09-23T11:24:25.418Z,92794.91
2022-09-23T11:27:09.840Z,92801.16
2022-09-23T11:30:07.016Z,92793.91
2022-09-23T11:33:21.234Z,92787.31
2022-09-23T11:35:56.075Z,92795.75
2022-09-23T11:38:32.896Z,92797.50
2022-09-23T11:41:15.238Z,92801.09
2022-09-23T11:43:47.596Z,92798.34
2022-09-23T11:46:25.034Z,92786.00
2022-09-23T11:49:05.161Z,92780.88
2022-09-23T11:51:41.132Z,92781.53
2022-09-23T11:54:20.956Z,92785.78
2022-09-23T11:56:55.477Z,92784.81
2022-09-23T11:59:40.673Z,92784.47
2022-09-23T12:02:26.868Z,92779.78
2022-09-23T12:05:07.818Z,92779.19
2022-09-23T12:07:51.556Z,92774.97
2022-09-23T12:10:21.863Z,92772.88
2022-09-23T12:13:03.465Z,92772.09
2022-09-23T12:15:51.820Z,92773.25
2022-09-23T12:18:42.377Z,92766.66
2022-09-23T12:21:53.020Z,92771.09
2022-09-23T12:24:56.196Z,92770.69
2022-09-23T12:27:34.806Z,92768.47
2022-09-23T12:30:06.661Z,92774.16
2022-09-23T12:32:36.447Z,92773.00
2022-09-23T12:35:07.941Z,92775.63
2022-09-23T12:37:41.156Z,92781.88
2022-09-23T12:40:20.482Z,92776.19
2022-09-23T12:42:51.186Z,92779.78
2022-09-23T12:45:38.906Z,92769.16
2022-09-23T12:48:46.308Z,92778.94
2022-09-23T12:52:57.586Z,92781.28
2022-09-23T12:55:51.849Z,92782.00
2022-09-23T12:58:40.633Z,92776.88
2022-09-23T13:01:18.565Z,92776.03
2022-09-23T13:04:07.932Z,92779.25
2022-09-23T13:06:42.949Z,92770.97
2022-09-23T13:09:20.758Z,92771.63
2022-09-23T13:11:51.438Z,92777.84
2022-09-23T13:14:27.699Z,92779.22
2022-09-23T13:16:58.670Z,92787.09
2022-09-23T13:19:47.844Z,92789.25
2022-09-23T13:23:04.157Z,92784.72
2022-09-23T13:25:41.610Z,92785.53
2022-09-23T13:28:34.111Z,92787.84
2022-09-23T13:31:08.228Z,92788.81
2022-09-23T13:33:44.512Z,92795.56
2022-09-23T13:36:16.880Z,92793.09
2022-09-23T13:38:47.252Z,92796.78
2022-09-23T13:41:21.293Z,92797.59
2022-09-23T13:43:53.621Z,92788.50
2022-09-23T13:46:25.172Z,92794.03
2022-09-23T13:48:56.667Z,92783.56
2022-09-23T13:51:30.329Z,92785.59
2022-09-23T13:54:03.003Z,92785.19
2022-09-23T13:56:36.781Z,92771.19
2022-09-23T13:59:27.394Z,92783.03
2022-09-23T14:02:08.428Z,92770.63
2022-09-23T14:04:37.901Z,92774.53
2022-09-23T14:07:11.594Z,92776.47
2022-09-23T14:09:45.892Z,92774.28
2022-09-23T14:12:22.190Z,92766.97
2022-09-23T14:14:54.414Z,92777.34
2022-09-23T14:17:25.018Z,92774.56
2022-09-23T14:19:54.593Z,92771.69
2022-09-23T14:22:28.555Z,92768.94
2022-09-23T14:24:59.851Z,92776.03
2022-09-23T14:27:34.097Z,92775.47
2022-09-23T14:30:05.314Z,92773.81
2022-09-23T14:32:35.116Z,92773.09
2022-09-23T14:35:21.866Z,92775.56
2022-09-23T14:38:12.667Z,92772.41
2022-09-23T14:40:54.821Z,92773.75
2022-09-23T14:43:28.818Z,92778.44
2022-09-23T14:46:00.276Z,92775.56
2022-09-23T14:48:34.631Z,92779.31
2022-09-23T14:51:06.616Z,92778.91
2022-09-23T14:53:41.739Z,92781.53
2022-09-23T14:56:20.717Z,92777.78
2022-09-23T14:58:55.061Z,92778.09
2022-09-23T15:01:36.750Z,92780.81
2022-09-23T15:04:18.067Z,92782.63
2022-09-23T15:06:55.226Z,92783.31
2022-09-23T15:09:28.298Z,92783.97
2022-09-23T15:12:04.355Z,92791.44
2022-09-23T15:14:41.228Z,92785.69
2022-09-23T15:17:30.802Z,92796.31
2022-09-23T15:20:04.190Z,92786.41
2022-09-23T15:22:34.945Z,92788.47
2022-09-23T15:25:24.779Z,92797.06
2022-09-23T15:28:23.745Z,92786.16
2022-09-23T15:30:55.463Z,92798.78
2022-09-23T15:33:28.216Z,92794.56
2022-09-23T15:35:58.421Z,92803.41
2022-09-23T15:38:28.185Z,92800.22
2022-09-23T15:40:57.527Z,92806.28
2022-09-23T15:43:28.251Z,92803.44
2022-09-23T15:46:01.468Z,92803.94
2022-09-23T15:48:38.821Z,92806.03
2022-09-23T15:52:57.575Z,92811.09
2022-09-23T15:55:27.265Z,92806.56
2022-09-23T15:57:56.871Z,92802.06
2022-09-23T16:00:26.248Z,92816.31
2022-09-23T16:02:55.723Z,92818.34
2022-09-23T16:05:36.311Z,92822.03
2022-09-23T16:08:09.408Z,92812.19
2022-09-23T16:10:39.644Z,92810.88
2022-09-23T16:13:13.307Z,92819.28
2022-09-23T16:15:43.282Z,92821.19
2022-09-23T16:18:14.367Z,92813.22
2022-09-23T16:20:47.529Z,92815.78
2022-09-23T16:23:34.831Z,92822.75
2022-09-23T16:26:08.709Z,92826.13
2022-09-23T16:28:38.040Z,92829.75
2022-09-23T16:31:07.881Z,92821.19
2022-09-23T16:33:37.406Z,92825.13
2022-09-23T16:36:08.562Z,92820.47
2022-09-23T16:38:39.492Z,92824.72
2022-09-23T16:41:09.332Z,92824.69
2022-09-23T16:43:40.702Z,92833.63
2022-09-23T16:46:12.438Z,92837.38
2022-09-23T16:48:42.135Z,92842.13
2022-09-23T16:51:18.883Z,92843.81
2022-09-23T16:53:51.268Z,92844.25
2022-09-23T16:56:28.134Z,92846.88
2022-09-23T16:58:58.738Z,92849.88
2022-09-23T17:01:47.683Z,92860.41
2022-09-23T17:04:19.831Z,92851.88
2022-09-23T17:06:51.133Z,92857.09
2022-09-23T17:09:24.948Z,92860.06
2022-09-23T17:12:01.409Z,92867.97
2022-09-23T17:14:32.605Z,92867.56
2022-09-23T17:17:01.864Z,92868.59
2022-09-23T17:19:31.411Z,92866.50
2022-09-23T17:22:00.814Z,92870.66
2022-09-23T17:24:31.544Z,92875.72
2022-09-23T17:27:00.948Z,92878.19
2022-09-23T17:29:30.748Z,92883.63
2022-09-23T17:32:00.129Z,92888.00
2022-09-23T17:34:30.099Z,92889.31
2022-09-23T17:36:59.517Z,92893.16
2022-09-23T17:39:31.896Z,92892.34
2022-09-23T17:42:01.932Z,92893.47
2022-09-23T17:44:31.622Z,92895.34
2022-09-23T17:47:01.126Z,92895.47
2022-09-23T17:49:35.676Z,92906.13
2022-09-23T17:52:06.096Z,92907.88
2022-09-23T17:54:37.280Z,92913.38
2022-09-23T17:57:06.892Z,92908.81
2022-09-23T17:59:36.151Z,92921.38
2022-09-23T18:02:06.207Z,92911.81
2022-09-23T18:04:35.711Z,92918.72
2022-09-23T18:07:05.160Z,92925.97
2022-09-23T18:09:35.986Z,92925.88
2022-09-23T18:12:05.463Z,92930.41
2022-09-23T18:14:35.034Z,92936.97
2022-09-23T18:17:04.580Z,92938.28
2022-09-23T18:19:33.928Z,92937.69
2022-09-23T18:22:03.374Z,92935.22
2022-09-23T18:24:38.049Z,92938.09
2022-09-23T18:27:09.111Z,92936.16
2022-09-23T18:29:38.792Z,92936.63
2022-09-23T18:32:12.153Z,92937.44
2022-09-23T18:34:43.371Z,92938.09
2022-09-23T18:37:16.148Z,92937.81
2022-09-23T18:39:45.915Z,92946.78
2022-09-23T18:42:16.863Z,92942.31
2022-09-23T18:44:46.232Z,92948.91
2022-09-23T18:47:35.770Z,92946.44
2022-09-23T18:53:01.193Z,92950.31
2022-09-23T18:55:30.566Z,92945.44
2022-09-23T18:58:00.528Z,92949.22
2022-09-23T19:00:30.291Z,92954.84
2022-09-23T19:02:59.610Z,92950.16
2022-09-23T19:05:28.993Z,92951.41
2022-09-23T19:07:59.761Z,92955.59
2022-09-23T19:10:29.156Z,92955.13
2022-09-23T19:12:58.468Z,92946.69
2022-09-23T19:15:28.061Z,92961.56
2022-09-23T19:17:57.395Z,92955.31
2022-09-23T19:20:26.745Z,92954.84
2022-09-23T19:22:56.117Z,92960.50
2022-09-23T19:25:26.897Z,92961.09
2022-09-23T19:27:56.208Z,92965.41
2022-09-23T19:30:25.551Z,92963.63
2022-09-23T19:32:54.904Z,92960.09
2022-09-23T19:35:25.142Z,92960.78
2022-09-23T19:37:54.496Z,92971.38
2022-09-23T19:40:25.585Z,92971.75
2022-09-23T19:42:55.185Z,92970.94
2022-09-23T19:45:25.204Z,92967.88
2022-09-23T19:47:57.651Z,92974.13
2022-09-23T19:50:27.092Z,92968.38
2022-09-23T19:52:57.110Z,92976.63
2022-09-23T19:55:28.530Z,92977.88
2022-09-23T19:57:57.891Z,92976.38
2022-09-23T20:00:27.585Z,92973.47
2022-09-23T20:02:58.008Z,92976.09
2022-09-23T20:05:28.637Z,92974.44
2022-09-23T20:07:59.229Z,92977.19
2022-09-23T20:10:30.178Z,92973.22
2022-09-23T20:13:00.714Z,92975.56
2022-09-23T20:15:30.261Z,92984.75
2022-09-23T20:17:59.724Z,92979.91
2022-09-23T20:20:29.171Z,92981.13
2022-09-23T20:22:58.993Z,92981.97
2022-09-23T20:25:49.993Z,92985.84
2022-09-23T20:28:18.424Z,92980.91
2022-09-23T20:30:48.107Z,92991.66
2022-09-23T20:33:17.473Z,92982.56
2022-09-23T20:35:53.733Z,92993.50
2022-09-23T20:38:23.100Z,92986.94
2022-09-23T20:40:58.872Z,92988.28
2022-09-23T20:43:28.391Z,92985.34
2022-09-23T20:45:58.019Z,92986.25
2022-09-23T20:48:27.399Z,92994.75
2022-09-23T20:51:02.611Z,92995.00
2022-09-23T20:53:32.843Z,92999.31
2022-09-23T20:56:06.102Z,92992.25
2022-09-23T20:58:37.712Z,92994.53
2022-09-23T21:01:11.407Z,92992.53
2022-09-23T21:03:44.853Z,92985.69
2022-09-23T21:06:19.122Z,92993.38
2022-09-23T21:08:49.166Z,92987.34
2022-09-23T21:11:20.456Z,92985.84
2022-09-23T21:13:51.808Z,92991.56
2022-09-23T21:16:23.526Z,92992.91
2022-09-23T21:18:53.782Z,92998.59
2022-09-23T21:21:23.576Z,92989.16
2022-09-23T21:23:53.427Z,92992.09
2022-09-23T21:26:26.220Z,92993.88
2022-09-23T21:28:58.029Z,92999.13
2022-09-23T21:31:29.704Z,92996.72
2022-09-23T21:34:01.574Z,92995.69
2022-09-23T21:36:32.951Z,93002.63
2022-09-23T21:39:03.321Z,92998.53
2022-09-23T21:41:35.063Z,92999.31
2022-09-23T21:44:06.913Z,93005.78
2022-09-23T21:46:37.818Z,93002.91
2022-09-23T21:49:09.287Z,92999.94
2022-09-23T21:52:57.490Z,92996.44
2022-09-23T21:55:28.026Z,93000.63
2022-09-23T21:57:57.559Z,93002.88
2022-09-23T22:00:27.108Z,93006.06
2022-09-23T22:02:56.569Z,93005.81
2022-09-23T22:05:26.110Z,92999.19
2022-09-23T22:07:56.958Z,93000.78
2022-09-23T22:10:26.614Z,92997.69
2022-09-23T22:12:56.106Z,93000.69
2022-09-23T22:15:25.689Z,92999.31
2022-09-23T22:17:55.348Z,92997.41
2022-09-23T22:20:24.958Z,92990.72
2022-09-23T22:22:56.168Z,92987.81
2022-09-23T22:25:25.761Z,93002.03
2022-09-23T22:28:12.701Z,92991.50
2022-09-23T22:30:59.363Z,92995.69
2022-09-23T22:33:28.732Z,92989.06
2022-09-23T22:36:04.077Z,92993.53
2022-09-23T22:38:36.093Z,92986.91
2022-09-23T22:41:05.769Z,92988.75
2022-09-23T22:43:35.181Z,92989.94
2022-09-23T22:46:04.550Z,92987.84
2022-09-23T22:48:34.095Z,92983.81
2022-09-23T22:51:06.722Z,92986.59
2022-09-23T22:53:37.768Z,92987.34
2022-09-23T22:56:07.252Z,92981.06
2022-09-23T22:58:36.709Z,92977.13
2022-09-23T23:01:06.209Z,92985.16
2022-09-23T23:03:35.938Z,92976.91
2022-09-23T23:06:06.696Z,92986.66
2022-09-23T23:08:39.028Z,92978.38
2022-09-23T23:11:11.569Z,92978.34
2022-09-23T23:13:42.308Z,92975.59
2022-09-23T23:16:14.118Z,92977.75
2022-09-23T23:18:47.856Z,92975.81
2022-09-23T23:21:19.601Z,92978.13
2022-09-23T23:23:52.611Z,92969.22
2022-09-23T23:26:24.363Z,92970.63
2022-09-23T23:28:55.466Z,92979.56
2022-09-23T23:31:27.508Z,92971.00
2022-09-23T23:33:57.223Z,92971.47
2022-09-23T23:36:27.116Z,92970.09
2022-09-23T23:38:58.035Z,92978.66
2022-09-23T23:41:28.089Z,92966.38
2022-09-23T23:44:00.513Z,92968.22
2022-09-23T23:46:31.801Z,92959.41
2022-09-23T23:49:02.603Z,92962.38
2022-09-23T23:51:32.288Z,92959.56
2022-09-23T23:54:03.344Z,92958.88
2022-09-23T23:56:33.499Z,92959.03
2022-09-23T23:59:04.547Z,92958.88
